createdAt,value
2019-03-01T00:02:13.075Z,100380.25
2019-03-01T00:05:36.269Z,100384.05
2019-03-01T00:08:15.789Z,100380.63
2019-03-01T00:11:04.466Z,100376.43
2019-03-01T00:14:06.123Z,100372.31
2019-03-01T00:16:49.262Z,100369.44
2019-03-01T00:19:44.255Z,100378.61
2019-03-01T00:22:30.190Z,100381.88
2019-03-01T00:25:22.028Z,100384.74
2019-03-01T00:28:02.072Z,100385.89
2019-03-01T00:30:45.160Z,100380.22
2019-03-01T00:33:28.409Z,100379.22
2019-03-01T00:36:25.948Z,100375.96
2019-03-01T00:39:12.210Z,100366.63
2019-03-01T00:41:52.536Z,100369.27
2019-03-01T00:44:41.488Z,100361.58
2019-03-01T00:47:11.206Z,100363.49
2019-03-01T00:49:40.897Z,100363.11
2019-03-01T00:52:11.244Z,100354.42
2019-03-01T00:54:40.791Z,100356.05
2019-03-01T00:57:10.501Z,100350.83
2019-03-01T00:59:40.134Z,100349.53
2019-03-01T01:02:09.794Z,100349.95
2019-03-01T01:04:39.347Z,100355.59
2019-03-01T01:07:08.886Z,100355.67
2019-03-01T01:09:38.619Z,100357.47
2019-03-01T01:12:08.328Z,100353.62
2019-03-01T01:14:38.071Z,100351.95
2019-03-01T01:17:07.618Z,100340.02
2019-03-01T01:19:37.167Z,100345.70
2019-03-01T01:22:06.731Z,100351.30
2019-03-01T01:24:36.280Z,100345.16
2019-03-01T01:27:05.925Z,100343.33
2019-03-01T01:29:35.478Z,100343.71
2019-03-01T01:32:05.051Z,100346.69
2019-03-01T01:34:34.619Z,100341.50
2019-03-01T01:37:04.194Z,100342.75
2019-03-01T01:39:34.239Z,100335.81
2019-03-01T01:42:03.853Z,100326.20
2019-03-01T01:44:33.404Z,100320.91
2019-03-01T01:47:02.981Z,100318.61
2019-03-01T01:49:32.518Z,100310.18
2019-03-01T01:52:02.096Z,100301.78
2019-03-01T01:54:31.630Z,100292.52
2019-03-01T01:57:01.542Z,100281.53
2019-03-01T01:59:31.074Z,100270.97
2019-03-01T02:02:00.624Z,100270.30
2019-03-01T02:04:30.194Z,100273.23
2019-03-01T02:06:59.816Z,100271.02
2019-03-01T02:09:29.475Z,100270.17
2019-03-01T02:11:59.032Z,100274.80
2019-03-01T02:14:28.844Z,100265.58
2019-03-01T02:16:58.392Z,100274.92
2019-03-01T02:19:27.940Z,100269.66
2019-03-01T02:21:57.505Z,100270.49
2019-03-01T02:24:27.043Z,100268.83
2019-03-01T02:27:27.051Z,100263.31
2019-03-01T02:29:56.705Z,100262.95
2019-03-01T02:32:33.811Z,100263.32
2019-03-01T02:35:03.360Z,100254.21
2019-03-01T02:37:32.933Z,100257.13
2019-03-01T02:40:02.506Z,100255.80
2019-03-01T02:42:32.047Z,100260.18
2019-03-01T02:45:01.617Z,100262.89
2019-03-01T02:47:31.178Z,100266.12
2019-03-01T02:50:00.722Z,100257.22
2019-03-01T02:52:30.300Z,100256.52
2019-03-01T02:54:59.845Z,100257.98
2019-03-01T02:57:29.493Z,100262.91
2019-03-01T02:59:59.046Z,100259.71
2019-03-01T03:02:28.661Z,100260.33
2019-03-01T03:04:58.237Z,100257.86
2019-03-01T03:07:29.425Z,100248.88
2019-03-01T03:09:59.009Z,100253.75
2019-03-01T03:12:28.560Z,100253.82
2019-03-01T03:14:58.101Z,100246.54
2019-03-01T03:17:28.000Z,100251.77
2019-03-01T03:19:57.549Z,100253.52
2019-03-01T03:22:27.204Z,100253.10
2019-03-01T03:24:56.752Z,100252.72
2019-03-01T03:27:26.301Z,100252.72
2019-03-01T03:29:55.901Z,100246.27
2019-03-01T03:32:25.981Z,100261.06
2019-03-01T03:34:55.717Z,100253.78
2019-03-01T03:37:25.260Z,100254.69
2019-03-01T03:39:54.810Z,100247.83
2019-03-01T03:42:24.397Z,100248.33
2019-03-01T03:44:54.086Z,100247.90
2019-03-01T03:47:24.104Z,100247.90
2019-03-01T03:49:53.664Z,100244.09
2019-03-01T03:52:23.216Z,100244.05
2019-03-01T03:54:52.793Z,100235.84
2019-03-01T03:57:22.525Z,100240.27
2019-03-01T03:59:52.185Z,100244.65
2019-03-01T04:02:21.760Z,100243.03
2019-03-01T04:04:51.556Z,100222.71
2019-03-01T04:07:21.181Z,100220.50
2019-03-01T04:09:50.719Z,100216.61
2019-03-01T04:12:20.300Z,100209.26
2019-03-01T04:14:49.841Z,100214.02
2019-03-01T04:17:19.428Z,100204.98
2019-03-01T04:19:49.050Z,100206.66
2019-03-01T04:22:18.772Z,100202.32
2019-03-01T04:24:48.320Z,100204.03
2019-03-01T04:27:17.871Z,100200.14
2019-03-01T04:29:47.741Z,100196.71
2019-03-01T04:32:17.381Z,100186.86
2019-03-01T04:34:46.990Z,100183.84
2019-03-01T04:37:16.545Z,100183.00
2019-03-01T04:39:46.114Z,100185.56
2019-03-01T04:42:15.674Z,100177.36
2019-03-01T04:44:45.428Z,100173.47
2019-03-01T04:47:15.068Z,100169.97
2019-03-01T04:49:46.283Z,100160.83
2019-03-01T04:52:35.660Z,100166.44
2019-03-01T04:55:10.982Z,100152.56
2019-03-01T04:57:40.563Z,100150.39
2019-03-01T05:00:17.041Z,100145.05
2019-03-01T05:02:46.621Z,100141.89
2019-03-01T05:05:16.915Z,100146.52
2019-03-01T05:07:46.597Z,100151.67
2019-03-01T05:10:16.867Z,100149.08
2019-03-01T05:12:46.547Z,100151.67
2019-03-01T05:15:19.301Z,100148.63
2019-03-01T05:17:48.864Z,100151.70
2019-03-01T05:20:18.416Z,100146.09
2019-03-01T05:22:48.150Z,100138.39
2019-03-01T05:25:17.713Z,100139.69
2019-03-01T05:27:47.374Z,100141.47
2019-03-01T05:30:18.755Z,100146.66
2019-03-01T05:32:48.523Z,100150.16
2019-03-01T05:35:18.179Z,100154.50
2019-03-01T05:37:47.719Z,100159.72
2019-03-01T05:40:18.184Z,100164.97
2019-03-01T05:42:47.743Z,100165.39
2019-03-01T05:45:27.123Z,100165.84
2019-03-01T05:47:56.994Z,100161.95
2019-03-01T05:50:26.554Z,100160.70
2019-03-01T05:52:56.140Z,100157.27
2019-03-01T05:55:25.859Z,100156.39
2019-03-01T05:58:31.412Z,100152.50
2019-03-01T06:01:26.270Z,100153.34
2019-03-01T06:04:03.353Z,100155.16
2019-03-01T06:06:48.960Z,100154.84
2019-03-01T06:09:35.333Z,100157.11
2019-03-01T06:12:42.966Z,100142.91
2019-03-01T06:15:59.675Z,100158.05
2019-03-01T06:19:13.862Z,100154.61
2019-03-01T06:22:24.594Z,100156.42
2019-03-01T06:25:18.356Z,100152.20
2019-03-01T06:27:58.185Z,100150.52
2019-03-01T06:30:35.240Z,100150.09
2019-03-01T06:33:28.934Z,100146.69
2019-03-01T06:36:08.987Z,100144.61
2019-03-01T06:39:30.677Z,100155.05
2019-03-01T06:42:30.383Z,100167.20
2019-03-01T06:45:25.738Z,100164.19
2019-03-01T06:47:55.301Z,100162.89
2019-03-01T06:50:26.515Z,100170.25
2019-03-01T06:52:56.144Z,100171.58
2019-03-01T06:55:42.422Z,100185.94
2019-03-01T06:58:16.966Z,100180.81
2019-03-01T07:00:50.409Z,100177.41
2019-03-01T07:03:19.821Z,100186.52
2019-03-01T07:05:49.387Z,100187.88
2019-03-01T07:08:19.025Z,100186.55
2019-03-01T07:10:48.581Z,100180.88
2019-03-01T07:13:18.153Z,100182.14
2019-03-01T07:15:47.714Z,100182.56
2019-03-01T07:18:17.368Z,100179.55
2019-03-01T07:20:46.977Z,100186.94
2019-03-01T07:23:16.541Z,100183.92
2019-03-01T07:25:46.112Z,100188.69
2019-03-01T07:28:15.656Z,100190.47
2019-03-01T07:30:45.278Z,100190.08
2019-03-01T07:33:14.838Z,100192.70
2019-03-01T07:35:46.280Z,100189.69
2019-03-01T07:38:15.741Z,100189.23
2019-03-01T07:40:45.400Z,100188.30
2019-03-01T07:43:14.995Z,100192.16
2019-03-01T07:45:44.544Z,100193.82
2019-03-01T07:48:14.184Z,100188.99
2019-03-01T07:50:43.738Z,100192.83
2019-03-01T07:53:13.643Z,100194.12
2019-03-01T07:55:44.110Z,100189.35
2019-03-01T07:58:13.818Z,100183.77
2019-03-01T08:00:43.470Z,100186.42
2019-03-01T08:03:15.122Z,100188.20
2019-03-01T08:05:44.327Z,100188.69
2019-03-01T08:08:13.884Z,100185.31
2019-03-01T08:10:43.491Z,100194.03
2019-03-01T08:13:14.768Z,100196.23
2019-03-01T08:15:44.799Z,100197.98
2019-03-01T08:18:15.497Z,100200.55
2019-03-01T08:20:45.017Z,100194.03
2019-03-01T08:23:14.574Z,100184.52
2019-03-01T08:25:44.095Z,100185.43
2019-03-01T08:28:13.641Z,100185.01
2019-03-01T08:30:46.902Z,100184.61
2019-03-01T08:33:16.503Z,100186.78
2019-03-01T08:35:46.023Z,100190.25
2019-03-01T08:38:15.547Z,100188.63
2019-03-01T08:40:46.677Z,100193.93
2019-03-01T08:43:16.621Z,100186.62
2019-03-01T08:45:46.287Z,100183.23
2019-03-01T08:48:15.807Z,100182.02
2019-03-01T08:50:45.845Z,100186.86
2019-03-01T08:53:16.159Z,100186.09
2019-03-01T08:55:46.333Z,100193.02
2019-03-01T08:58:15.873Z,100199.91
2019-03-01T09:00:59.032Z,100199.56
2019-03-01T09:03:31.643Z,100197.47
2019-03-01T09:06:01.165Z,100208.70
2019-03-01T09:08:30.718Z,100201.71
2019-03-01T09:11:00.252Z,100199.91
2019-03-01T09:13:29.852Z,100205.07
2019-03-01T09:15:59.409Z,100206.31
2019-03-01T09:18:28.999Z,100211.03
2019-03-01T09:21:05.637Z,100220.58
2019-03-01T09:23:29.982Z,100214.91
2019-03-01T09:25:59.504Z,100218.80
2019-03-01T09:28:29.213Z,100216.20
2019-03-01T09:30:58.759Z,100213.60
2019-03-01T09:33:28.314Z,100209.80
2019-03-01T09:36:05.236Z,100212.89
2019-03-01T09:38:34.967Z,100208.66
2019-03-01T09:41:05.421Z,100207.86
2019-03-01T09:43:34.975Z,100213.53
2019-03-01T09:46:04.577Z,100216.13
2019-03-01T09:48:34.108Z,100219.18
2019-03-01T09:51:03.728Z,100223.05
2019-03-01T09:53:34.163Z,100220.42
2019-03-01T09:56:04.711Z,100220.90
2019-03-01T09:58:34.246Z,100215.70
2019-03-01T10:01:11.372Z,100218.30
2019-03-01T10:03:40.906Z,100214.86
2019-03-01T10:06:10.446Z,100214.48
2019-03-01T10:08:39.981Z,100216.23
2019-03-01T10:11:09.598Z,100211.09
2019-03-01T10:13:39.134Z,100215.01
2019-03-01T10:16:08.724Z,100214.06
2019-03-01T10:18:38.725Z,100215.36
2019-03-01T10:21:08.248Z,100213.66
2019-03-01T10:23:37.835Z,100215.41
2019-03-01T10:26:07.401Z,100218.48
2019-03-01T10:28:36.924Z,100213.72
2019-03-01T10:31:06.555Z,100223.55
2019-03-01T10:33:36.094Z,100225.20
2019-03-01T10:36:05.854Z,100230.81
2019-03-01T10:38:35.403Z,100233.07
2019-03-01T10:41:05.103Z,100233.58
2019-03-01T10:43:34.655Z,100234.48
2019-03-01T10:46:04.192Z,100240.58
2019-03-01T10:48:33.855Z,100238.88
2019-03-01T10:51:03.343Z,100245.40
2019-03-01T10:53:32.863Z,100245.77
2019-03-01T10:56:02.449Z,100241.83
2019-03-01T10:58:32.000Z,100246.57
2019-03-01T11:01:01.569Z,100249.11
2019-03-01T11:03:31.273Z,100262.44
2019-03-01T11:06:00.759Z,100254.99
2019-03-01T11:08:30.306Z,100261.00
2019-03-01T11:10:59.871Z,100257.47
2019-03-01T11:13:29.369Z,100262.19
2019-03-01T11:15:58.923Z,100264.22
2019-03-01T11:18:28.479Z,100264.03
2019-03-01T11:20:58.077Z,100272.52
2019-03-01T11:23:27.666Z,100268.89
2019-03-01T11:25:57.198Z,100263.11
2019-03-01T11:28:26.746Z,100264.41
2019-03-01T11:30:56.336Z,100270.93
2019-03-01T11:33:25.891Z,100276.55
2019-03-01T11:35:55.706Z,100275.95
2019-03-01T11:38:25.258Z,100277.09
2019-03-01T11:40:55.923Z,100267.52
2019-03-01T11:43:25.485Z,100275.34
2019-03-01T11:45:55.007Z,100272.88
2019-03-01T11:48:24.708Z,100272.62
2019-03-01T11:50:54.301Z,100270.61
2019-03-01T11:53:23.847Z,100275.53
2019-03-01T11:55:53.544Z,100271.37
2019-03-01T11:58:23.068Z,100278.02
2019-03-01T12:00:52.676Z,100287.70
2019-03-01T12:03:22.362Z,100286.05
2019-03-01T12:05:51.888Z,100283.42
2019-03-01T12:08:21.417Z,100284.56
2019-03-01T12:10:50.961Z,100289.88
2019-03-01T12:13:20.492Z,100290.04
2019-03-01T12:15:50.035Z,100292.19
2019-03-01T12:18:19.698Z,100287.02
2019-03-01T12:20:49.219Z,100281.02
2019-03-01T12:23:18.790Z,100285.83
2019-03-01T12:25:48.351Z,100284.59
2019-03-01T12:28:17.907Z,100288.91
2019-03-01T12:30:47.589Z,100290.98
2019-03-01T12:33:17.238Z,100287.38
2019-03-01T12:35:46.774Z,100286.02
2019-03-01T12:38:16.304Z,100293.84
2019-03-01T12:40:45.860Z,100290.44
2019-03-01T12:43:15.388Z,100291.83
2019-03-01T12:45:44.920Z,100290.56
2019-03-01T12:48:14.883Z,100289.75
2019-03-01T12:50:44.413Z,100296.37
2019-03-01T12:53:13.967Z,100300.72
2019-03-01T12:55:43.709Z,100304.48
2019-03-01T12:58:19.343Z,100321.36
2019-03-01T13:00:44.567Z,100329.24
2019-03-01T13:03:14.291Z,100329.20
2019-03-01T13:05:43.808Z,100327.88
2019-03-01T13:08:15.756Z,100338.23
2019-03-01T13:10:46.133Z,100342.48
2019-03-01T13:13:15.771Z,100340.23
2019-03-01T13:15:48.322Z,100349.33
2019-03-01T13:18:16.890Z,100352.55
2019-03-01T13:20:46.477Z,100351.50
2019-03-01T13:23:16.012Z,100357.00
2019-03-01T13:25:45.573Z,100359.03
2019-03-01T13:28:15.094Z,100362.74
2019-03-01T13:30:44.666Z,100366.94
2019-03-01T13:33:14.344Z,100372.02
2019-03-01T13:35:43.883Z,100377.55
2019-03-01T13:38:13.402Z,100382.50
2019-03-01T13:40:43.373Z,100386.15
2019-03-01T13:43:12.884Z,100382.55
2019-03-01T13:45:42.420Z,100378.71
2019-03-01T13:48:12.126Z,100381.34
2019-03-01T13:50:42.424Z,100378.37
2019-03-01T13:53:12.017Z,100386.69
2019-03-01T13:55:41.789Z,100391.91
2019-03-01T13:58:11.298Z,100387.98
2019-03-01T14:00:40.822Z,100391.98
2019-03-01T14:03:10.794Z,100393.52
2019-03-01T14:05:40.316Z,100392.50
2019-03-01T14:08:09.831Z,100395.78
2019-03-01T14:10:41.857Z,100399.16
2019-03-01T14:13:11.243Z,100396.95
2019-03-01T14:15:42.205Z,100394.05
2019-03-01T14:18:11.742Z,100399.52
2019-03-01T14:20:41.271Z,100387.28
2019-03-01T14:23:10.792Z,100392.77
2019-03-01T14:25:41.712Z,100397.79
2019-03-01T14:28:14.300Z,100387.63
2019-03-01T14:30:43.905Z,100392.25
2019-03-01T14:33:13.698Z,100395.87
2019-03-01T14:35:43.259Z,100401.12
2019-03-01T14:38:12.846Z,100404.88
2019-03-01T14:40:42.400Z,100408.55
2019-03-01T14:43:12.390Z,100410.91
2019-03-01T14:45:44.774Z,100407.77
2019-03-01T14:48:13.460Z,100420.56
2019-03-01T14:50:43.038Z,100416.93
2019-03-01T14:53:12.565Z,100417.64
2019-03-01T14:55:55.664Z,100421.05
2019-03-01T14:58:37.911Z,100422.34
2019-03-01T15:01:26.800Z,100417.12
2019-03-01T15:03:55.535Z,100417.51
2019-03-01T15:06:25.127Z,100413.58
2019-03-01T15:08:54.750Z,100417.02
2019-03-01T15:11:24.909Z,100416.98
2019-03-01T15:13:54.495Z,100412.31
2019-03-01T15:16:24.318Z,100420.63
2019-03-01T15:18:53.837Z,100417.47
2019-03-01T15:21:23.363Z,100419.38
2019-03-01T15:23:56.365Z,100417.48
2019-03-01T15:26:26.599Z,100421.31
2019-03-01T15:28:56.043Z,100428.22
2019-03-01T15:31:26.054Z,100427.73
2019-03-01T15:33:55.570Z,100430.33
2019-03-01T15:36:25.089Z,100430.78
2019-03-01T15:38:54.642Z,100435.94
2019-03-01T15:41:24.168Z,100441.05
2019-03-01T15:43:53.675Z,100448.77
2019-03-01T15:46:23.227Z,100452.12
2019-03-01T15:48:52.741Z,100459.27
2019-03-01T15:51:22.268Z,100461.21
2019-03-01T15:53:52.220Z,100458.00
2019-03-01T15:56:22.142Z,100459.18
2019-03-01T15:58:52.014Z,100474.70
2019-03-01T16:01:21.754Z,100471.99
2019-03-01T16:03:54.042Z,100470.66
2019-03-01T16:06:23.081Z,100479.73
2019-03-01T16:08:52.614Z,100475.80
2019-03-01T16:11:22.339Z,100475.59
2019-03-01T16:13:51.847Z,100472.80
2019-03-01T16:16:21.375Z,100486.92
2019-03-01T16:18:50.921Z,100492.83
2019-03-01T16:21:20.434Z,100492.73
2019-03-01T16:23:50.386Z,100497.33
2019-03-01T16:26:29.409Z,100494.19
2019-03-01T16:28:51.139Z,100497.66
2019-03-01T16:31:33.499Z,100501.13
2019-03-01T16:34:05.344Z,100507.65
2019-03-01T16:36:36.112Z,100508.48
2019-03-01T16:39:10.378Z,100516.17
2019-03-01T16:41:42.817Z,100518.16
2019-03-01T16:44:11.219Z,100510.25
2019-03-01T16:46:40.746Z,100525.67
2019-03-01T16:49:10.284Z,100530.38
2019-03-01T16:51:39.808Z,100522.42
2019-03-01T16:54:09.429Z,100533.90
2019-03-01T16:56:39.418Z,100535.50
2019-03-01T16:59:09.354Z,100548.28
2019-03-01T17:01:40.885Z,100547.67
2019-03-01T17:04:10.471Z,100551.92
2019-03-01T17:06:40.009Z,100556.68
2019-03-01T17:09:11.729Z,100559.80
2019-03-01T17:11:41.384Z,100557.77
2019-03-01T17:14:11.881Z,100565.66
2019-03-01T17:16:41.539Z,100577.23
2019-03-01T17:19:11.056Z,100577.19
2019-03-01T17:21:40.571Z,100577.14
2019-03-01T17:24:12.268Z,100574.51
2019-03-01T17:26:41.386Z,100574.97
2019-03-01T17:29:10.953Z,100580.94
2019-03-01T17:31:40.476Z,100587.41
2019-03-01T17:34:10.227Z,100582.27
2019-03-01T17:36:39.757Z,100587.04
2019-03-01T17:39:09.828Z,100582.64
2019-03-01T17:41:44.639Z,100580.82
2019-03-01T17:44:10.616Z,100583.73
2019-03-01T17:46:40.154Z,100583.12
2019-03-01T17:49:09.674Z,100592.96
2019-03-01T17:51:39.219Z,100598.44
2019-03-01T17:54:08.734Z,100605.59
2019-03-01T17:56:38.251Z,100608.02
2019-03-01T17:59:08.396Z,100610.03
2019-03-01T18:01:40.297Z,100620.80
2019-03-01T18:04:09.900Z,100616.92
2019-03-01T18:06:39.429Z,100626.03
2019-03-01T18:09:09.273Z,100629.09
2019-03-01T18:11:40.713Z,100632.97
2019-03-01T18:14:10.815Z,100628.62
2019-03-01T18:16:40.376Z,100638.97
2019-03-01T18:19:09.962Z,100637.73
2019-03-01T18:21:39.533Z,100639.44
2019-03-01T18:24:11.002Z,100641.61
2019-03-01T18:26:40.986Z,100647.20
2019-03-01T18:29:10.631Z,100644.16
2019-03-01T18:31:40.151Z,100649.69
2019-03-01T18:34:09.690Z,100657.81
2019-03-01T18:36:39.224Z,100656.00
2019-03-01T18:39:13.207Z,100670.76
2019-03-01T18:41:42.721Z,100672.00
2019-03-01T18:44:12.703Z,100676.19
2019-03-01T18:46:42.228Z,100676.17
2019-03-01T18:49:11.751Z,100683.05
2019-03-01T18:51:43.200Z,100689.00
2019-03-01T18:54:12.610Z,100690.66
2019-03-01T18:56:42.157Z,100691.32
2019-03-01T18:59:11.675Z,100699.03
2019-03-01T19:01:42.973Z,100701.15
2019-03-01T19:04:12.882Z,100711.91
2019-03-01T19:06:43.752Z,100716.27
2019-03-01T19:09:16.494Z,100720.97
2019-03-01T19:11:44.778Z,100716.73
2019-03-01T19:14:14.302Z,100722.84
2019-03-01T19:16:43.843Z,100724.18
2019-03-01T19:19:13.355Z,100739.10
2019-03-01T19:21:42.902Z,100728.28
2019-03-01T19:24:12.422Z,100739.71
2019-03-01T19:26:41.961Z,100735.01
2019-03-01T19:29:11.651Z,100741.73
2019-03-01T19:31:41.544Z,100744.23
2019-03-01T19:34:13.067Z,100742.00
2019-03-01T19:36:42.316Z,100736.72
2019-03-01T19:39:20.052Z,100746.54
2019-03-01T19:41:49.560Z,100739.44
2019-03-01T19:44:19.094Z,100745.30
2019-03-01T19:46:51.398Z,100747.77
2019-03-01T19:49:19.926Z,100745.53
2019-03-01T19:51:49.432Z,100745.95
2019-03-01T19:54:18.930Z,100751.23
2019-03-01T19:56:48.548Z,100752.23
2019-03-01T19:59:18.095Z,100753.94
2019-03-01T20:01:49.387Z,100756.47
2019-03-01T20:04:21.204Z,100758.17
2019-03-01T20:06:50.630Z,100760.88
2019-03-01T20:09:20.686Z,100760.41
2019-03-01T20:11:51.934Z,100758.70
2019-03-01T20:14:21.557Z,100758.75
2019-03-01T20:16:51.077Z,100769.98
2019-03-01T20:19:23.407Z,100767.40
2019-03-01T20:21:53.162Z,100780.36
2019-03-01T20:24:22.705Z,100773.53
2019-03-01T20:26:52.259Z,100775.66
2019-03-01T20:29:21.816Z,100783.33
2019-03-01T20:31:51.339Z,100779.92
2019-03-01T20:34:20.865Z,100786.53
2019-03-01T20:36:52.961Z,100786.17
2019-03-01T20:39:21.827Z,100790.05
2019-03-01T20:41:51.352Z,100786.59
2019-03-01T20:44:20.887Z,100787.52
2019-03-01T20:46:50.409Z,100795.46
2019-03-01T20:49:19.926Z,100791.11
2019-03-01T20:51:49.525Z,100790.17
2019-03-01T20:54:21.868Z,100793.11
2019-03-01T20:56:51.658Z,100790.47
2019-03-01T20:59:21.590Z,100798.29
2019-03-01T21:01:51.119Z,100795.76
2019-03-01T21:04:20.665Z,100799.81
2019-03-01T21:06:50.206Z,100804.19
2019-03-01T21:09:19.993Z,100801.66
2019-03-01T21:11:49.506Z,100794.36
2019-03-01T21:14:19.139Z,100796.13
2019-03-01T21:16:51.502Z,100794.95
2019-03-01T21:19:21.076Z,100798.41
2019-03-01T21:21:50.676Z,100797.01
2019-03-01T21:24:23.000Z,100802.54
2019-03-01T21:26:52.078Z,100806.48
2019-03-01T21:29:21.670Z,100798.71
2019-03-01T21:31:51.286Z,100801.59
2019-03-01T21:34:21.067Z,100799.40
2019-03-01T21:36:50.722Z,100802.40
2019-03-01T21:39:20.624Z,100804.52
2019-03-01T21:41:51.503Z,100813.63
2019-03-01T21:44:21.057Z,100811.45
2019-03-01T21:46:50.614Z,100812.39
2019-03-01T21:49:20.168Z,100813.30
2019-03-01T21:51:51.675Z,100815.89
2019-03-01T21:54:20.971Z,100814.98
2019-03-01T21:56:55.702Z,100814.18
2019-03-01T21:59:22.087Z,100819.00
2019-03-01T22:01:52.785Z,100819.89
2019-03-01T22:04:22.519Z,100813.83
2019-03-01T22:06:52.047Z,100821.65
2019-03-01T22:09:24.274Z,100827.65
2019-03-01T22:11:52.826Z,100824.23
2019-03-01T22:14:22.380Z,100823.00
2019-03-01T22:16:51.911Z,100823.06
2019-03-01T22:19:21.422Z,100823.87
2019-03-01T22:21:50.966Z,100823.41
2019-03-01T22:24:23.721Z,100825.53
2019-03-01T22:26:51.743Z,100816.89
2019-03-01T22:29:21.308Z,100822.94
2019-03-01T22:31:50.841Z,100819.00
2019-03-01T22:34:20.366Z,100822.06
2019-03-01T22:36:52.901Z,100821.59
2019-03-01T22:39:21.243Z,100824.59
2019-03-01T22:41:50.736Z,100816.00
2019-03-01T22:44:20.309Z,100820.00
2019-03-01T22:46:49.839Z,100817.00
2019-03-01T22:49:19.348Z,100816.17
2019-03-01T22:51:49.605Z,100819.64
2019-03-01T22:54:20.160Z,100823.11
2019-03-01T22:56:49.703Z,100823.94
2019-03-01T22:59:19.348Z,100823.11
2019-03-01T23:01:48.860Z,100827.05
2019-03-01T23:04:18.383Z,100832.70
2019-03-01T23:06:51.582Z,100838.78
2019-03-01T23:09:19.839Z,100839.66
2019-03-01T23:11:49.357Z,100834.08
2019-03-01T23:14:18.896Z,100837.48
2019-03-01T23:16:50.619Z,100841.76
2019-03-01T23:19:19.675Z,100839.94
2019-03-01T23:21:49.397Z,100836.00
2019-03-01T23:24:18.928Z,100833.30
2019-03-01T23:26:48.453Z,100828.53
2019-03-01T23:29:18.897Z,100825.83
2019-03-01T23:31:49.342Z,100826.23
2019-03-01T23:34:18.871Z,100824.04
2019-03-01T23:36:48.430Z,100831.33
2019-03-01T23:39:17.937Z,100831.09
2019-03-01T23:41:47.469Z,100834.80
2019-03-01T23:44:16.997Z,100832.89
2019-03-01T23:46:46.514Z,100848.30
2019-03-01T23:49:16.040Z,100840.89
2019-03-01T23:51:46.263Z,100840.77
2019-03-01T23:54:15.812Z,100842.89
2019-03-01T23:56:45.335Z,100841.59
2019-03-01T23:59:15.252Z,100829.39
